Disclaimer

Please do not use the information listed here in-flight or in-navigation, as they are not provided to us by the airports but are provided by volunteers, so they might be outdated.

Search


Regions


Airport information page

No radio frequency information is available.

Airport informations:
Latitude: 07° 40' 07.08" S
Longitude: 035° 45' 07.61" E
Elevation: 4678 feet - 1426 meters
Operating hours: Remarks
Operating agency: Civil government, landing fees and diplomatic clearance may be required
Timezone: UTC+2
Fuel: N/A

Runway information:
02/20 - 5508 x 98 feet< - >1679 x 30 meters

Recent METARs:
HTIR 131400Z 09010KT 9999 BKN023 26/13 Q1017
HTIR 131400Z 09010KT 9999 BKN023 26/13 Q1017
HTIR 131500Z 12010KT 9999 SCT023 26/14 Q1017

Airport on the map: